LPPTLPFR

Guest
Details From LPPT - Lisboa
To LPFR - Faro
Flight Number -
Tags Generated
Created
Modified
Stats Distance 119 nm / 221 km
Max Altitude 0 ft / 0 m
Waypoints 2
Social Downloads 5
Likes 0
Share VATSIM

Download

Looking for another format? Having issues loading an existing format? Contact us
Advertisement - Login to hide

Notes

Generated

Route

LPPT LPFR

ID Type Via Altitude Latitude Longitude Leg Dist Tot Dist Heading (true) Name
O LPPT APT - 0 ft / 0 m 38.78624˚ -9.13721˚ - 0 nm - -
O LPFR APT - 0 ft / 0 m 37.01729˚ -7.98609˚ 119 nm 119 nm 152° / 153° -

Altitude Profile

Advertisement - Login to hide

LPPT

Details ICAO LPPT (LIS)
Name Lisboa
Region Portugal
Timezone Europe/Lisbon (UTC+1.0)
Stats Elevation 374 ft / 114 m (AMSL)
Location 38.778559° -9.135146°
Runways 2
Magnetic Variation 2.308° W

METAR

LPPT 261930Z 31006KT CAVOK 18/13 Q1013

Decode

TAF

TAF LPPT 261700Z 2618/2724 32010KT 9999 SCT030 BECMG 2619/2621 34005KT FEW015 TEMPO 2702/2708 BKN010 BECMG 2708/2710 33010KT SCT020 BECMG 2714/2716 33015KT BECMG 2720/2722 33008KT SCT012

Decode

Departure Runways

ID Width Length Bearing (true) Bearing (mag) Surface Threshold Offset Overrun Length
03 148 ft / 45 m 12,518 ft / 3,815 m 22.70° 25.01° Asphalt 296 ft / 90 m 0 ft / 0 m
17 148 ft / 45 m 7,922 ft / 2,415 m 168.38° 170.69° Asphalt 0 ft / 0 m 0 ft / 0 m
21 148 ft / 45 m 12,518 ft / 3,815 m 202.72° 205.03° Asphalt 1,969 ft / 600 m 0 ft / 0 m
35 148 ft / 45 m 7,922 ft / 2,415 m 348.38° 350.69° Asphalt 492 ft / 150 m 0 ft / 0 m

LPFR

Details ICAO LPFR (FAO)
Name Faro
Region Portugal
Timezone Europe/Lisbon (UTC+1.0)
Stats Elevation 24 ft / 7 m (AMSL)
Location 37.015336° -7.972327°
Runways 1
Magnetic Variation 1.882° W

METAR

LPFR 261930Z 27008KT 9999 FEW012 18/15 Q1013

Decode

TAF

TAF LPFR 261700Z 2618/2718 24008KT CAVOK BECMG 2620/2622 30007KT BECMG 2702/2705 VRB03KT 9999 SCT030 BECMG 2708/2711 26012KT

Decode

Destination Runways

ID Width Length Bearing (true) Bearing (mag) Surface Threshold Offset Overrun Length
10 148 ft / 45 m 8,148 ft / 2,484 m 100.08° 101.96° Asphalt 148 ft / 45 m 0 ft / 0 m
28 148 ft / 45 m 8,148 ft / 2,484 m 280.10° 281.98° Asphalt 148 ft / 45 m 0 ft / 0 m

Approach Navaids

Runway Type Ident Frequency Range Bearing (true) Bearing (mag) Slope Elevation
28 Localiser IIF 109.50 MHz 18 nm / 33 km 280.16° 282.04° - 24 ft / 7 m (AMSL)
28 Glidescope IIF 109.50 MHz 10 nm / 19 km 280.09° 281.97° 3.00° 24 ft / 7 m (AMSL)
28 DME IIF 109.50 MHz 18 nm / 33 km - - - 24 ft / 7 m (AMSL)

Popular Alternatives